CheckWX is a tool to help pilots better visualize weather data.  It is not intended as a substitute for an official pre-flight weather briefing.

05:41:09 UTC

KDPA TAF
Dupage Airport
Chicago/West Chicago, Illinois, USA
KDPA 230520Z 2306/2406 20012G20KT 6SM -SHRA VCTS BKN040CB OVC070 TEMPO 2306/2308 24020G30KT 1SM +TSRA BR OVC020CB FM230900 25010KT P6SM BKN035 OVC250 FM231500 27015G25KT P6SM FEW040 SCT250 FM240000 33007KT P6SM FEW070 BKN250 FM240400 03007KT P6SM FEW070 BKN250

May-23@
06:00 UTC

May-23 @ 06:00 UTC

May-23@
09:00 UTC

May-23 @ 09:00 UTC

KDPA 230520Z 2306/2406 20012G20KT 6SM -SHRA VCTS BKN040CB OVC070
Wind
  • 200° at 12 KTS
  • {Gusting to 20 KTS
Conditions
Light Rain, Area Thunderstorm
Cloud Levels
  • Broken at 4,000' AGL
  • Overcast at 7,000' AGL

May-23@
06:00 UTC

May-23 @ 06:00 UTC

May-23@
08:00 UTC

May-23 @ 08:00 UTC

TEMPO 2306/2308 24020G30KT 1SM +TSRA BR OVC020CB

Temporary

Temporary Changes expected for less than half the time period

Wind
  • 240° at 20 KTS
  • {Gusting to 30 KTS
Conditions
Heavy Thunderstorm, Heavy Rain, Mist
Cloud Levels
  • Overcast at 2,000' AGL

May-23@
09:00 UTC

May-23 @ 09:00 UTC

May-23@
15:00 UTC

May-23 @ 15:00 UTC

FM230900 25010KT P6SM BKN035 OVC250

From

From Standard forecast or significant change

Wind
  • 250° at 10 KTS
Cloud Levels
  • Broken at 3,500' AGL
  • Overcast at 25,000' AGL

May-23@
15:00 UTC

May-23 @ 15:00 UTC

May-24@
00:00 UTC

May-24 @ 00:00 UTC

FM231500 27015G25KT P6SM FEW040 SCT250

From

From Standard forecast or significant change

Wind
  • 270° at 15 KTS
  • {Gusting to 25 KTS
Cloud Levels
  • Few at 4,000' AGL
  • Scattered at 25,000' AGL

May-24@
00:00 UTC

May-24 @ 00:00 UTC

May-24@
04:00 UTC

May-24 @ 04:00 UTC

FM240000 33007KT P6SM FEW070 BKN250

From

From Standard forecast or significant change

Wind
  • 330° at 7 KTS
Cloud Levels
  • Few at 7,000' AGL
  • Broken at 25,000' AGL

May-24@
04:00 UTC

May-24 @ 04:00 UTC

May-24@
06:00 UTC

May-24 @ 06:00 UTC

FM240400 03007KT P6SM FEW070 BKN250

From

From Standard forecast or significant change

Wind
  • 030° at 7 KTS
Cloud Levels
  • Few at 7,000' AGL
  • Broken at 25,000' AGL